sensor_id;sensor_type;location;lat;lon;timestamp;temperature;humidity
67572;SHT31;54397;47.506;19.158;2023-08-06T00:02:44;21.43;88.72
67572;SHT31;54397;47.506;19.158;2023-08-06T00:06:05;21.39;89.22
67572;SHT31;54397;47.506;19.158;2023-08-06T00:09:27;21.39;89.26
67572;SHT31;54397;47.506;19.158;2023-08-06T00:12:51;21.20;89.92
67572;SHT31;54397;47.506;19.158;2023-08-06T00:16:13;21.26;89.61
67572;SHT31;54397;47.506;19.158;2023-08-06T00:19:35;21.35;89.32
67572;SHT31;54397;47.506;19.158;2023-08-06T00:22:57;21.30;89.82
67572;SHT31;54397;47.506;19.158;2023-08-06T00:26:19;21.33;88.90
67572;SHT31;54397;47.506;19.158;2023-08-06T00:29:41;21.29;88.60
67572;SHT31;54397;47.506;19.158;2023-08-06T00:33:05;21.02;90.37
67572;SHT31;54397;47.506;19.158;2023-08-06T00:36:26;20.94;90.61
67572;SHT31;54397;47.506;19.158;2023-08-06T00:39:48;20.88;91.34
67572;SHT31;54397;47.506;19.158;2023-08-06T00:43:10;20.96;91.69
67572;SHT31;54397;47.506;19.158;2023-08-06T00:46:34;21.08;91.79
67572;SHT31;54397;47.506;19.158;2023-08-06T00:49:58;21.16;91.52
67572;SHT31;54397;47.506;19.158;2023-08-06T00:53:20;21.13;90.98
67572;SHT31;54397;47.506;19.158;2023-08-06T00:56:42;21.26;90.62
67572;SHT31;54397;47.506;19.158;2023-08-06T01:00:04;21.29;90.84
67572;SHT31;54397;47.506;19.158;2023-08-06T01:03:29;21.42;90.19
67572;SHT31;54397;47.506;19.158;2023-08-06T01:07:02;21.19;90.04
67572;SHT31;54397;47.506;19.158;2023-08-06T01:14:23;21.12;90.49
67572;SHT31;54397;47.506;19.158;2023-08-06T01:17:49;21.08;90.87
67572;SHT31;54397;47.506;19.158;2023-08-06T01:21:19;21.06;90.81
67572;SHT31;54397;47.506;19.158;2023-08-06T01:24:47;21.03;90.26
67572;SHT31;54397;47.506;19.158;2023-08-06T01:28:18;20.89;90.65
67572;SHT31;54397;47.506;19.158;2023-08-06T01:31:44;20.75;91.46
67572;SHT31;54397;47.506;19.158;2023-08-06T01:35:07;20.58;92.59
67572;SHT31;54397;47.506;19.158;2023-08-06T01:38:29;20.58;92.36
67572;SHT31;54397;47.506;19.158;2023-08-06T01:41:51;20.68;92.36
67572;SHT31;54397;47.506;19.158;2023-08-06T01:45:14;20.82;91.76
67572;SHT31;54397;47.506;19.158;2023-08-06T01:48:35;20.54;91.75
67572;SHT31;54397;47.506;19.158;2023-08-06T01:51:57;20.50;92.49
67572;SHT31;54397;47.506;19.158;2023-08-06T01:55:19;20.44;92.99
67572;SHT31;54397;47.506;19.158;2023-08-06T01:58:40;20.37;92.64
67572;SHT31;54397;47.506;19.158;2023-08-06T02:02:02;20.37;93.15
67572;SHT31;54397;47.506;19.158;2023-08-06T02:05:24;20.27;92.78
67572;SHT31;54397;47.506;19.158;2023-08-06T02:08:45;20.14;93.33
67572;SHT31;54397;47.506;19.158;2023-08-06T02:12:07;20.08;93.67
67572;SHT31;54397;47.506;19.158;2023-08-06T02:15:32;19.96;93.61
67572;SHT31;54397;47.506;19.158;2023-08-06T02:18:59;19.96;93.31
67572;SHT31;54397;47.506;19.158;2023-08-06T02:22:20;19.92;93.55
67572;SHT31;54397;47.506;19.158;2023-08-06T02:25:42;20.08;93.72
67572;SHT31;54397;47.506;19.158;2023-08-06T02:29:04;20.19;93.04
67572;SHT31;54397;47.506;19.158;2023-08-06T02:32:26;20.33;92.87
67572;SHT31;54397;47.506;19.158;2023-08-06T02:35:47;20.34;91.93
67572;SHT31;54397;47.506;19.158;2023-08-06T02:39:09;20.36;91.63
67572;SHT31;54397;47.506;19.158;2023-08-06T02:42:31;20.40;91.88
67572;SHT31;54397;47.506;19.158;2023-08-06T02:45:56;20.48;91.97
67572;SHT31;54397;47.506;19.158;2023-08-06T02:49:18;20.43;90.83
67572;SHT31;54397;47.506;19.158;2023-08-06T02:52:40;20.41;90.82
67572;SHT31;54397;47.506;19.158;2023-08-06T02:56:04;20.43;90.74
67572;SHT31;54397;47.506;19.158;2023-08-06T02:59:26;20.44;91.46
67572;SHT31;54397;47.506;19.158;2023-08-06T03:02:50;20.54;91.49
67572;SHT31;54397;47.506;19.158;2023-08-06T03:06:12;20.67;90.90
67572;SHT31;54397;47.506;19.158;2023-08-06T03:09:33;20.64;90.37
67572;SHT31;54397;47.506;19.158;2023-08-06T03:12:55;20.68;89.79
67572;SHT31;54397;47.506;19.158;2023-08-06T03:16:20;20.61;89.58
67572;SHT31;54397;47.506;19.158;2023-08-06T03:19:41;20.37;89.60
67572;SHT31;54397;47.506;19.158;2023-08-06T03:23:03;20.29;90.00
67572;SHT31;54397;47.506;19.158;2023-08-06T03:26:28;20.02;90.66
67572;SHT31;54397;47.506;19.158;2023-08-06T03:29:50;20.06;90.59
67572;SHT31;54397;47.506;19.158;2023-08-06T03:33:12;20.05;90.80
67572;SHT31;54397;47.506;19.158;2023-08-06T03:36:33;20.03;90.23
67572;SHT31;54397;47.506;19.158;2023-08-06T03:39:55;19.95;90.65
67572;SHT31;54397;47.506;19.158;2023-08-06T03:43:17;19.96;90.89
67572;SHT31;54397;47.506;19.158;2023-08-06T03:46:38;19.90;90.96
67572;SHT31;54397;47.506;19.158;2023-08-06T03:50:00;19.96;91.00
67572;SHT31;54397;47.506;19.158;2023-08-06T03:53:22;19.79;90.80
67572;SHT31;54397;47.506;19.158;2023-08-06T03:56:44;19.55;91.25
67572;SHT31;54397;47.506;19.158;2023-08-06T04:00:06;19.51;91.94
67572;SHT31;54397;47.506;19.158;2023-08-06T04:03:28;19.53;91.74
67572;SHT31;54397;47.506;19.158;2023-08-06T04:06:53;19.50;91.14
67572;SHT31;54397;47.506;19.158;2023-08-06T04:10:14;19.21;91.57
67572;SHT31;54397;47.506;19.158;2023-08-06T04:13:36;18.96;91.79
67572;SHT31;54397;47.506;19.158;2023-08-06T04:16:58;18.83;92.46
67572;SHT31;54397;47.506;19.158;2023-08-06T04:20:19;18.69;92.61
67572;SHT31;54397;47.506;19.158;2023-08-06T04:23:41;18.72;93.05
67572;SHT31;54397;47.506;19.158;2023-08-06T04:27:05;18.48;93.28
67572;SHT31;54397;47.506;19.158;2023-08-06T04:30:27;18.52;93.69
67572;SHT31;54397;47.506;19.158;2023-08-06T04:33:49;18.47;93.65
67572;SHT31;54397;47.506;19.158;2023-08-06T04:37:10;18.41;93.46
67572;SHT31;54397;47.506;19.158;2023-08-06T04:40:36;18.40;93.30
67572;SHT31;54397;47.506;19.158;2023-08-06T04:43:57;18.41;92.86
67572;SHT31;54397;47.506;19.158;2023-08-06T04:47:19;18.38;92.94
67572;SHT31;54397;47.506;19.158;2023-08-06T04:50:45;18.38;93.21
67572;SHT31;54397;47.506;19.158;2023-08-06T04:54:07;18.21;92.99
67572;SHT31;54397;47.506;19.158;2023-08-06T04:57:28;18.20;93.73
67572;SHT31;54397;47.506;19.158;2023-08-06T05:00:50;18.21;93.57
67572;SHT31;54397;47.506;19.158;2023-08-06T05:04:14;18.22;93.67
67572;SHT31;54397;47.506;19.158;2023-08-06T05:07:36;18.21;93.95
67572;SHT31;54397;47.506;19.158;2023-08-06T05:10:58;18.38;93.73
67572;SHT31;54397;47.506;19.158;2023-08-06T05:14:19;18.35;93.37
67572;SHT31;54397;47.506;19.158;2023-08-06T05:17:41;18.34;92.51
67572;SHT31;54397;47.506;19.158;2023-08-06T05:21:05;18.41;92.56
67572;SHT31;54397;47.506;19.158;2023-08-06T05:24:27;18.47;92.29
67572;SHT31;54397;47.506;19.158;2023-08-06T05:27:48;18.44;92.42
67572;SHT31;54397;47.506;19.158;2023-08-06T05:31:10;18.62;92.74
67572;SHT31;54397;47.506;19.158;2023-08-06T05:34:32;18.70;90.91
67572;SHT31;54397;47.506;19.158;2023-08-06T05:37:56;18.73;90.56
67572;SHT31;54397;47.506;19.158;2023-08-06T05:41:18;18.73;90.55
67572;SHT31;54397;47.506;19.158;2023-08-06T05:44:42;18.68;90.73
67572;SHT31;54397;47.506;19.158;2023-08-06T05:48:04;18.76;89.92
67572;SHT31;54397;47.506;19.158;2023-08-06T05:51:28;18.76;89.28
67572;SHT31;54397;47.506;19.158;2023-08-06T05:54:52;18.86;88.98
67572;SHT31;54397;47.506;19.158;2023-08-06T05:58:14;18.73;86.72
67572;SHT31;54397;47.506;19.158;2023-08-06T06:01:36;18.55;87.35
67572;SHT31;54397;47.506;19.158;2023-08-06T06:04:58;18.32;87.59
67572;SHT31;54397;47.506;19.158;2023-08-06T06:08:19;18.35;88.77
67572;SHT31;54397;47.506;19.158;2023-08-06T06:11:41;18.40;88.28
67572;SHT31;54397;47.506;19.158;2023-08-06T06:15:03;18.30;88.12
67572;SHT31;54397;47.506;19.158;2023-08-06T06:18:25;18.35;88.14
67572;SHT31;54397;47.506;19.158;2023-08-06T06:21:46;18.51;87.68
67572;SHT31;54397;47.506;19.158;2023-08-06T06:25:08;18.35;87.11
67572;SHT31;54397;47.506;19.158;2023-08-06T06:28:32;18.47;87.38
67572;SHT31;54397;47.506;19.158;2023-08-06T06:31:54;18.41;87.01
67572;SHT31;54397;47.506;19.158;2023-08-06T06:35:18;18.47;88.73
67572;SHT31;54397;47.506;19.158;2023-08-06T06:38:42;18.28;86.95
67572;SHT31;54397;47.506;19.158;2023-08-06T06:42:06;18.42;86.34
67572;SHT31;54397;47.506;19.158;2023-08-06T06:45:28;18.48;87.69
67572;SHT31;54397;47.506;19.158;2023-08-06T06:48:50;18.58;86.92
67572;SHT31;54397;47.506;19.158;2023-08-06T06:52:14;18.58;86.62
67572;SHT31;54397;47.506;19.158;2023-08-06T06:55:40;18.77;87.46
67572;SHT31;54397;47.506;19.158;2023-08-06T06:59:02;18.62;87.41
67572;SHT31;54397;47.506;19.158;2023-08-06T07:02:23;18.51;86.26
67572;SHT31;54397;47.506;19.158;2023-08-06T07:05:47;18.10;87.85
67572;SHT31;54397;47.506;19.158;2023-08-06T07:09:09;18.03;87.63
67572;SHT31;54397;47.506;19.158;2023-08-06T07:12:31;17.91;88.00
67572;SHT31;54397;47.506;19.158;2023-08-06T07:15:54;18.00;88.15
67572;SHT31;54397;47.506;19.158;2023-08-06T07:19:16;17.94;88.92
67572;SHT31;54397;47.506;19.158;2023-08-06T07:22:39;18.14;88.11
67572;SHT31;54397;47.506;19.158;2023-08-06T07:26:02;17.98;87.80
67572;SHT31;54397;47.506;19.158;2023-08-06T07:29:23;18.01;87.28
67572;SHT31;54397;47.506;19.158;2023-08-06T07:32:45;17.97;87.85
67572;SHT31;54397;47.506;19.158;2023-08-06T07:36:09;17.97;87.73
67572;SHT31;54397;47.506;19.158;2023-08-06T07:39:31;18.11;87.94
67572;SHT31;54397;47.506;19.158;2023-08-06T07:42:53;18.22;86.40
67572;SHT31;54397;47.506;19.158;2023-08-06T07:46:14;18.24;86.52
67572;SHT31;54397;47.506;19.158;2023-08-06T07:49:36;18.24;87.55
67572;SHT31;54397;47.506;19.158;2023-08-06T07:52:58;18.35;88.18
67572;SHT31;54397;47.506;19.158;2023-08-06T07:56:22;18.52;87.15
67572;SHT31;54397;47.506;19.158;2023-08-06T07:59:46;18.35;86.52
67572;SHT31;54397;47.506;19.158;2023-08-06T08:03:10;18.35;85.42
67572;SHT31;54397;47.506;19.158;2023-08-06T08:06:33;18.37;85.62
67572;SHT31;54397;47.506;19.158;2023-08-06T08:09:55;18.34;85.45
67572;SHT31;54397;47.506;19.158;2023-08-06T08:13:19;18.38;85.94
67572;SHT31;54397;47.506;19.158;2023-08-06T08:16:41;18.31;84.97
67572;SHT31;54397;47.506;19.158;2023-08-06T08:20:05;18.15;86.64
67572;SHT31;54397;47.506;19.158;2023-08-06T08:23:30;18.08;86.70
67572;SHT31;54397;47.506;19.158;2023-08-06T08:26:53;18.11;85.02
67572;SHT31;54397;47.506;19.158;2023-08-06T08:30:15;18.11;85.17
67572;SHT31;54397;47.506;19.158;2023-08-06T08:33:39;18.18;85.28
67572;SHT31;54397;47.506;19.158;2023-08-06T08:37:00;18.21;84.27
67572;SHT31;54397;47.506;19.158;2023-08-06T08:40:29;18.24;84.41
67572;SHT31;54397;47.506;19.158;2023-08-06T08:43:54;18.18;84.36
67572;SHT31;54397;47.506;19.158;2023-08-06T08:47:16;18.15;84.80
67572;SHT31;54397;47.506;19.158;2023-08-06T08:50:40;18.48;85.46
67572;SHT31;54397;47.506;19.158;2023-08-06T08:54:03;18.44;83.40
67572;SHT31;54397;47.506;19.158;2023-08-06T08:57:25;18.76;83.72
67572;SHT31;54397;47.506;19.158;2023-08-06T09:00:47;18.82;83.59
67572;SHT31;54397;47.506;19.158;2023-08-06T09:04:12;18.82;81.83
67572;SHT31;54397;47.506;19.158;2023-08-06T09:07:48;18.93;82.03
67572;SHT31;54397;47.506;19.158;2023-08-06T09:11:10;18.62;82.61
67572;SHT31;54397;47.506;19.158;2023-08-06T09:14:32;18.76;83.52
67572;SHT31;54397;47.506;19.158;2023-08-06T09:17:54;18.86;83.21
67572;SHT31;54397;47.506;19.158;2023-08-06T09:21:16;18.93;81.70
67572;SHT31;54397;47.506;19.158;2023-08-06T09:24:38;18.66;80.03
67572;SHT31;54397;47.506;19.158;2023-08-06T09:28:02;18.45;81.21
67572;SHT31;54397;47.506;19.158;2023-08-06T09:31:32;18.22;82.52
67572;SHT31;54397;47.506;19.158;2023-08-06T09:34:57;18.15;81.95
67572;SHT31;54397;47.506;19.158;2023-08-06T09:38:19;18.21;81.40
67572;SHT31;54397;47.506;19.158;2023-08-06T09:41:41;18.49;82.41
67572;SHT31;54397;47.506;19.158;2023-08-06T09:45:06;18.77;81.93
67572;SHT31;54397;47.506;19.158;2023-08-06T09:48:33;18.61;80.88
67572;SHT31;54397;47.506;19.158;2023-08-06T09:51:57;18.53;80.99
67572;SHT31;54397;47.506;19.158;2023-08-06T09:55:21;18.63;80.50
67572;SHT31;54397;47.506;19.158;2023-08-06T09:58:44;18.61;79.42
67572;SHT31;54397;47.506;19.158;2023-08-06T10:02:12;18.79;80.44
67572;SHT31;54397;47.506;19.158;2023-08-06T10:05:34;18.86;80.18
67572;SHT31;54397;47.506;19.158;2023-08-06T10:08:57;18.76;79.87
67572;SHT31;54397;47.506;19.158;2023-08-06T10:12:18;18.85;80.08
67572;SHT31;54397;47.506;19.158;2023-08-06T10:15:41;18.73;79.82
67572;SHT31;54397;47.506;19.158;2023-08-06T10:19:04;18.73;79.26
67572;SHT31;54397;47.506;19.158;2023-08-06T10:22:26;18.75;79.74
67572;SHT31;54397;47.506;19.158;2023-08-06T10:25:54;18.79;80.37
67572;SHT31;54397;47.506;19.158;2023-08-06T10:29:35;18.58;80.01
67572;SHT31;54397;47.506;19.158;2023-08-06T10:33:02;18.58;79.81
67572;SHT31;54397;47.506;19.158;2023-08-06T10:36:26;18.31;79.51
67572;SHT31;54397;47.506;19.158;2023-08-06T10:39:49;18.37;79.66
67572;SHT31;54397;47.506;19.158;2023-08-06T10:43:34;18.37;78.96
67572;SHT31;54397;47.506;19.158;2023-08-06T10:47:28;18.49;79.87
67572;SHT31;54397;47.506;19.158;2023-08-06T10:50:50;18.45;79.16
67572;SHT31;54397;47.506;19.158;2023-08-06T10:54:14;18.45;79.60
67572;SHT31;54397;47.506;19.158;2023-08-06T10:57:36;18.31;80.04
67572;SHT31;54397;47.506;19.158;2023-08-06T11:00:58;18.52;80.56
67572;SHT31;54397;47.506;19.158;2023-08-06T11:04:21;18.62;79.34
67572;SHT31;54397;47.506;19.158;2023-08-06T11:07:45;18.68;78.35
67572;SHT31;54397;47.506;19.158;2023-08-06T12:00:54;19.10;76.54
67572;SHT31;54397;47.506;19.158;2023-08-06T12:04:17;19.32;76.97
67572;SHT31;54397;47.506;19.158;2023-08-06T12:07:41;19.35;74.93
67572;SHT31;54397;47.506;19.158;2023-08-06T12:11:03;19.16;75.26
67572;SHT31;54397;47.506;19.158;2023-08-06T12:14:27;18.99;76.69
67572;SHT31;54397;47.506;19.158;2023-08-06T12:17:49;19.14;76.84
67572;SHT31;54397;47.506;19.158;2023-08-06T12:21:13;18.96;76.46
67572;SHT31;54397;47.506;19.158;2023-08-06T12:24:37;18.86;76.19
67572;SHT31;54397;47.506;19.158;2023-08-06T12:27:58;18.80;76.13
67572;SHT31;54397;47.506;19.158;2023-08-06T12:31:20;19.00;76.46
67572;SHT31;54397;47.506;19.158;2023-08-06T12:34:42;18.72;76.42
67572;SHT31;54397;47.506;19.158;2023-08-06T12:38:14;18.83;77.33
67572;SHT31;54397;47.506;19.158;2023-08-06T12:41:37;18.80;76.81
67572;SHT31;54397;47.506;19.158;2023-08-06T12:45:01;18.95;76.76
67572;SHT31;54397;47.506;19.158;2023-08-06T12:48:25;19.10;76.41
67572;SHT31;54397;47.506;19.158;2023-08-06T12:51:48;18.86;76.21
67572;SHT31;54397;47.506;19.158;2023-08-06T12:55:15;18.83;76.26
67572;SHT31;54397;47.506;19.158;2023-08-06T12:58:37;18.96;77.06
67572;SHT31;54397;47.506;19.158;2023-08-06T13:02:03;18.65;76.41
67572;SHT31;54397;47.506;19.158;2023-08-06T13:05:30;18.62;78.20
67572;SHT31;54397;47.506;19.158;2023-08-06T13:08:54;18.70;78.84
67572;SHT31;54397;47.506;19.158;2023-08-06T13:12:16;18.86;79.25
67572;SHT31;54397;47.506;19.158;2023-08-06T13:15:40;19.02;79.03
67572;SHT31;54397;47.506;19.158;2023-08-06T13:19:05;18.75;78.84
67572;SHT31;54397;47.506;19.158;2023-08-06T13:22:27;18.73;78.18
67572;SHT31;54397;47.506;19.158;2023-08-06T13:25:49;18.68;78.28
67572;SHT31;54397;47.506;19.158;2023-08-06T13:29:10;18.70;78.24
67572;SHT31;54397;47.506;19.158;2023-08-06T13:32:32;18.83;77.84
67572;SHT31;54397;47.506;19.158;2023-08-06T13:35:58;18.75;78.32
67572;SHT31;54397;47.506;19.158;2023-08-06T13:39:20;18.70;76.72
67572;SHT31;54397;47.506;19.158;2023-08-06T13:42:41;18.76;76.20
67572;SHT31;54397;47.506;19.158;2023-08-06T13:46:03;18.85;75.60
67572;SHT31;54397;47.506;19.158;2023-08-06T13:49:27;18.89;75.98
67572;SHT31;54397;47.506;19.158;2023-08-06T13:52:48;18.82;75.50
67572;SHT31;54397;47.506;19.158;2023-08-06T13:56:10;18.79;77.17
67572;SHT31;54397;47.506;19.158;2023-08-06T13:59:32;18.65;77.21
67572;SHT31;54397;47.506;19.158;2023-08-06T14:02:56;18.53;78.09
67572;SHT31;54397;47.506;19.158;2023-08-06T14:06:21;18.56;78.28
67572;SHT31;54397;47.506;19.158;2023-08-06T14:09:43;18.38;78.65
67572;SHT31;54397;47.506;19.158;2023-08-06T14:13:05;18.40;79.51
67572;SHT31;54397;47.506;19.158;2023-08-06T14:16:31;18.44;79.20
67572;SHT31;54397;47.506;19.158;2023-08-06T14:19:53;18.49;79.12
67572;SHT31;54397;47.506;19.158;2023-08-06T14:23:15;18.62;78.87
67572;SHT31;54397;47.506;19.158;2023-08-06T14:26:37;18.69;78.33
67572;SHT31;54397;47.506;19.158;2023-08-06T14:30:01;18.76;77.34
67572;SHT31;54397;47.506;19.158;2023-08-06T14:33:24;18.77;77.21
67572;SHT31;54397;47.506;19.158;2023-08-06T14:36:48;18.69;78.21
67572;SHT31;54397;47.506;19.158;2023-08-06T14:40:10;18.77;76.96
67572;SHT31;54397;47.506;19.158;2023-08-06T14:43:32;18.85;77.23
67572;SHT31;54397;47.506;19.158;2023-08-06T14:46:54;18.93;76.61
67572;SHT31;54397;47.506;19.158;2023-08-06T14:50:16;18.86;76.02
67572;SHT31;54397;47.506;19.158;2023-08-06T14:53:39;18.88;75.64
67572;SHT31;54397;47.506;19.158;2023-08-06T14:57:00;18.90;76.77
67572;SHT31;54397;47.506;19.158;2023-08-06T15:00:22;18.89;76.88
67572;SHT31;54397;47.506;19.158;2023-08-06T15:03:46;18.77;76.58
67572;SHT31;54397;47.506;19.158;2023-08-06T15:07:08;18.68;76.98
67572;SHT31;54397;47.506;19.158;2023-08-06T15:10:31;18.62;77.63
67572;SHT31;54397;47.506;19.158;2023-08-06T15:13:55;18.76;78.00
67572;SHT31;54397;47.506;19.158;2023-08-06T15:17:18;18.79;76.82
67572;SHT31;54397;47.506;19.158;2023-08-06T15:20:40;18.75;76.21
67572;SHT31;54397;47.506;19.158;2023-08-06T15:24:02;18.75;76.51
67572;SHT31;54397;47.506;19.158;2023-08-06T15:27:28;18.83;76.80
67572;SHT31;54397;47.506;19.158;2023-08-06T15:30:51;18.97;76.99
67572;SHT31;54397;47.506;19.158;2023-08-06T15:34:15;19.17;75.92
67572;SHT31;54397;47.506;19.158;2023-08-06T15:37:36;18.95;75.91
67572;SHT31;54397;47.506;19.158;2023-08-06T15:40:58;18.89;76.23
67572;SHT31;54397;47.506;19.158;2023-08-06T15:44:20;18.97;76.20
67572;SHT31;54397;47.506;19.158;2023-08-06T15:47:46;18.92;75.61
67572;SHT31;54397;47.506;19.158;2023-08-06T15:51:10;18.76;75.71
67572;SHT31;54397;47.506;19.158;2023-08-06T15:54:34;18.68;76.54
67572;SHT31;54397;47.506;19.158;2023-08-06T15:57:56;18.75;76.07
67572;SHT31;54397;47.506;19.158;2023-08-06T16:01:20;18.83;75.55
67572;SHT31;54397;47.506;19.158;2023-08-06T16:04:42;18.83;76.11
67572;SHT31;54397;47.506;19.158;2023-08-06T16:08:04;18.86;75.55
67572;SHT31;54397;47.506;19.158;2023-08-06T16:11:26;18.75;75.30
67572;SHT31;54397;47.506;19.158;2023-08-06T16:14:50;18.65;75.85
67572;SHT31;54397;47.506;19.158;2023-08-06T16:18:12;18.69;75.40
67572;SHT31;54397;47.506;19.158;2023-08-06T16:21:34;18.65;75.15
67572;SHT31;54397;47.506;19.158;2023-08-06T16:24:55;18.75;75.56
67572;SHT31;54397;47.506;19.158;2023-08-06T16:28:19;18.73;75.14
67572;SHT31;54397;47.506;19.158;2023-08-06T16:31:43;18.76;75.02
67572;SHT31;54397;47.506;19.158;2023-08-06T16:35:08;18.77;74.84
67572;SHT31;54397;47.506;19.158;2023-08-06T16:38:32;18.68;75.13
67572;SHT31;54397;47.506;19.158;2023-08-06T16:41:59;18.86;75.27
67572;SHT31;54397;47.506;19.158;2023-08-06T16:45:25;18.79;74.68
67572;SHT31;54397;47.506;19.158;2023-08-06T16:48:50;18.77;73.81
67572;SHT31;54397;47.506;19.158;2023-08-06T16:52:17;18.79;74.48
67572;SHT31;54397;47.506;19.158;2023-08-06T16:55:41;18.90;74.70
67572;SHT31;54397;47.506;19.158;2023-08-06T16:59:03;18.82;74.76
67572;SHT31;54397;47.506;19.158;2023-08-06T17:02:25;18.86;74.83
67572;SHT31;54397;47.506;19.158;2023-08-06T17:05:47;18.58;74.81
67572;SHT31;54397;47.506;19.158;2023-08-06T17:09:12;18.51;75.83
67572;SHT31;54397;47.506;19.158;2023-08-06T17:12:33;18.40;76.20
67572;SHT31;54397;47.506;19.158;2023-08-06T17:15:56;18.49;76.23
67572;SHT31;54397;47.506;19.158;2023-08-06T17:19:18;18.38;76.83
67572;SHT31;54397;47.506;19.158;2023-08-06T17:22:40;18.41;76.59
67572;SHT31;54397;47.506;19.158;2023-08-06T17:26:01;18.41;76.30
67572;SHT31;54397;47.506;19.158;2023-08-06T17:29:25;18.40;77.05
67572;SHT31;54397;47.506;19.158;2023-08-06T17:32:47;18.32;77.05
67572;SHT31;54397;47.506;19.158;2023-08-06T17:36:11;18.24;77.62
67572;SHT31;54397;47.506;19.158;2023-08-06T17:39:33;18.15;77.15
67572;SHT31;54397;47.506;19.158;2023-08-06T17:42:59;18.14;77.17
67572;SHT31;54397;47.506;19.158;2023-08-06T17:46:21;18.10;77.57
67572;SHT31;54397;47.506;19.158;2023-08-06T17:49:43;18.07;78.26
67572;SHT31;54397;47.506;19.158;2023-08-06T17:53:05;18.22;77.84
67572;SHT31;54397;47.506;19.158;2023-08-06T17:56:27;18.08;78.59
67572;SHT31;54397;47.506;19.158;2023-08-06T17:59:51;18.10;77.89
67572;SHT31;54397;47.506;19.158;2023-08-06T18:03:17;17.89;78.46
67572;SHT31;54397;47.506;19.158;2023-08-06T18:06:41;17.83;79.26
67572;SHT31;54397;47.506;19.158;2023-08-06T18:10:06;17.89;78.37
67572;SHT31;54397;47.506;19.158;2023-08-06T18:13:30;17.72;78.33
67572;SHT31;54397;47.506;19.158;2023-08-06T18:16:52;17.69;78.74
67572;SHT31;54397;47.506;19.158;2023-08-06T18:20:14;17.67;79.46
67572;SHT31;54397;47.506;19.158;2023-08-06T18:23:36;17.66;78.69
67572;SHT31;54397;47.506;19.158;2023-08-06T18:26:59;17.61;78.95
67572;SHT31;54397;47.506;19.158;2023-08-06T18:30:23;17.57;78.91
67572;SHT31;54397;47.506;19.158;2023-08-06T18:33:49;17.52;78.56
67572;SHT31;54397;47.506;19.158;2023-08-06T18:37:11;17.62;78.69
67572;SHT31;54397;47.506;19.158;2023-08-06T18:40:35;17.50;78.45
67572;SHT31;54397;47.506;19.158;2023-08-06T18:43:56;17.56;77.53
67572;SHT31;54397;47.506;19.158;2023-08-06T18:47:20;17.36;78.06
67572;SHT31;54397;47.506;19.158;2023-08-06T18:50:45;17.40;78.35
67572;SHT31;54397;47.506;19.158;2023-08-06T18:54:06;17.46;78.83
67572;SHT31;54397;47.506;19.158;2023-08-06T18:57:30;17.43;77.65
67572;SHT31;54397;47.506;19.158;2023-08-06T19:00:59;17.38;77.65
67572;SHT31;54397;47.506;19.158;2023-08-06T19:04:20;17.29;77.81
67572;SHT31;54397;47.506;19.158;2023-08-06T19:07:42;17.31;78.01
67572;SHT31;54397;47.506;19.158;2023-08-06T19:11:04;17.40;77.59
67572;SHT31;54397;47.506;19.158;2023-08-06T19:14:28;17.40;77.87
67572;SHT31;54397;47.506;19.158;2023-08-06T19:17:50;18.07;75.48
67572;SHT31;54397;47.506;19.158;2023-08-06T19:21:14;18.73;75.56
67572;SHT31;54397;47.506;19.158;2023-08-06T19:24:35;18.37;74.22
67572;SHT31;54397;47.506;19.158;2023-08-06T19:27:57;18.05;75.47
67572;SHT31;54397;47.506;19.158;2023-08-06T19:31:21;17.96;75.95
67572;SHT31;54397;47.506;19.158;2023-08-06T19:34:43;17.83;75.74
67572;SHT31;54397;47.506;19.158;2023-08-06T19:38:04;17.77;75.33
67572;SHT31;54397;47.506;19.158;2023-08-06T19:41:31;17.63;76.40
67572;SHT31;54397;47.506;19.158;2023-08-06T19:44:55;17.67;75.88
67572;SHT31;54397;47.506;19.158;2023-08-06T19:48:16;17.53;77.15
67572;SHT31;54397;47.506;19.158;2023-08-06T19:51:39;17.39;76.90
67572;SHT31;54397;47.506;19.158;2023-08-06T19:55:01;17.48;76.78
67572;SHT31;54397;47.506;19.158;2023-08-06T19:58:27;17.52;77.26
67572;SHT31;54397;47.506;19.158;2023-08-06T20:01:49;17.66;77.02
67572;SHT31;54397;47.506;19.158;2023-08-06T20:05:14;17.67;76.72
67572;SHT31;54397;47.506;19.158;2023-08-06T20:08:39;17.62;76.36
67572;SHT31;54397;47.506;19.158;2023-08-06T20:12:01;17.59;76.94
67572;SHT31;54397;47.506;19.158;2023-08-06T20:15:22;17.63;77.30
67572;SHT31;54397;47.506;19.158;2023-08-06T20:18:44;17.61;76.69
67572;SHT31;54397;47.506;19.158;2023-08-06T20:22:08;17.61;76.99
67572;SHT31;54397;47.506;19.158;2023-08-06T20:25:34;17.50;77.30
67572;SHT31;54397;47.506;19.158;2023-08-06T20:28:55;17.35;77.49
67572;SHT31;54397;47.506;19.158;2023-08-06T20:32:19;17.32;77.95
67572;SHT31;54397;47.506;19.158;2023-08-06T20:35:41;17.46;77.73
67572;SHT31;54397;47.506;19.158;2023-08-06T20:39:02;17.43;78.23
67572;SHT31;54397;47.506;19.158;2023-08-06T20:42:26;17.48;77.36
67572;SHT31;54397;47.506;19.158;2023-08-06T20:45:57;17.38;77.67
67572;SHT31;54397;47.506;19.158;2023-08-06T20:49:21;17.34;77.82
67572;SHT31;54397;47.506;19.158;2023-08-06T20:52:43;17.36;77.72
67572;SHT31;54397;47.506;19.158;2023-08-06T20:56:07;17.43;78.10
67572;SHT31;54397;47.506;19.158;2023-08-06T20:59:31;17.49;77.27
67572;SHT31;54397;47.506;19.158;2023-08-06T21:02:58;17.45;77.85
67572;SHT31;54397;47.506;19.158;2023-08-06T21:06:23;17.59;77.69
67572;SHT31;54397;47.506;19.158;2023-08-06T21:09:44;17.59;76.55
67572;SHT31;54397;47.506;19.158;2023-08-06T21:13:06;17.63;76.74
67572;SHT31;54397;47.506;19.158;2023-08-06T21:16:28;17.59;77.43
67572;SHT31;54397;47.506;19.158;2023-08-06T21:19:50;17.67;75.96
67572;SHT31;54397;47.506;19.158;2023-08-06T21:23:12;17.72;76.19
67572;SHT31;54397;47.506;19.158;2023-08-06T21:26:33;17.77;75.83
67572;SHT31;54397;47.506;19.158;2023-08-06T21:29:58;17.94;75.26
67572;SHT31;54397;47.506;19.158;2023-08-06T21:33:20;17.86;74.30
67572;SHT31;54397;47.506;19.158;2023-08-06T21:36:41;17.87;74.71
67572;SHT31;54397;47.506;19.158;2023-08-06T21:40:04;17.94;73.78
67572;SHT31;54397;47.506;19.158;2023-08-06T21:43:28;17.90;73.87
67572;SHT31;54397;47.506;19.158;2023-08-06T21:46:52;17.87;73.94
67572;SHT31;54397;47.506;19.158;2023-08-06T21:50:13;17.83;74.56
67572;SHT31;54397;47.506;19.158;2023-08-06T21:53:40;17.70;74.43
67572;SHT31;54397;47.506;19.158;2023-08-06T21:57:02;17.69;73.85